createdAt,value
2018-01-05T00:00:29.350Z,3.00
2018-01-05T00:02:58.210Z,3.07
2018-01-05T00:05:27.052Z,3.40
2018-01-05T00:07:56.661Z,3.73
2018-01-05T00:10:26.258Z,3.70
2018-01-05T00:12:56.108Z,3.50
2018-01-05T00:15:24.966Z,3.10
2018-01-05T00:17:53.792Z,2.60
2018-01-05T00:20:22.646Z,3.30
2018-01-05T00:22:51.472Z,2.70
2018-01-05T00:25:20.320Z,3.10
2018-01-05T00:27:51.555Z,2.80
2018-01-05T00:30:20.367Z,2.60
2018-01-05T00:32:49.958Z,3.17
2018-01-05T00:35:18.779Z,3.90
2018-01-05T00:37:47.623Z,2.73
2018-01-05T00:40:16.455Z,2.97
2018-01-05T00:42:46.079Z,3.10
2018-01-05T00:45:14.919Z,2.83
2018-01-05T00:47:43.749Z,3.70
2018-01-05T00:50:12.578Z,3.50
2018-01-05T00:52:41.461Z,3.13
2018-01-05T00:55:10.269Z,3.20
2018-01-05T00:57:39.099Z,3.13
2018-01-05T01:00:07.950Z,3.77
2018-01-05T01:02:36.821Z,2.93
2018-01-05T01:05:06.420Z,2.87
2018-01-05T01:07:35.329Z,3.73
2018-01-05T01:10:05.079Z,3.10
2018-01-05T01:12:33.886Z,3.90
2018-01-05T01:15:02.719Z,2.90
2018-01-05T01:17:31.575Z,3.30
2018-01-05T01:20:01.233Z,3.10
2018-01-05T01:22:30.078Z,2.93
2018-01-05T01:24:59.652Z,2.20
2018-01-05T01:27:28.489Z,2.50
2018-01-05T01:29:57.346Z,3.30
2018-01-05T01:32:26.178Z,3.03
2018-01-05T01:34:55.026Z,2.93
2018-01-05T01:37:24.666Z,2.60
2018-01-05T01:39:54.132Z,3.03
2018-01-05T01:42:23.014Z,2.70
2018-01-05T01:44:51.893Z,3.10
2018-01-05T01:47:20.722Z,3.07
2018-01-05T01:49:49.563Z,3.83
2018-01-05T01:52:18.401Z,2.87
2018-01-05T01:54:47.248Z,3.40
2018-01-05T01:57:16.078Z,3.00
2018-01-05T01:59:45.785Z,3.50
2018-01-05T02:02:14.629Z,3.00
2018-01-05T02:04:43.457Z,3.60
2018-01-05T02:07:12.278Z,3.50
2018-01-05T02:09:42.290Z,3.77
2018-01-05T02:12:11.118Z,3.70
2018-01-05T02:14:39.950Z,3.03
2018-01-05T02:17:08.783Z,3.47
2018-01-05T02:19:38.446Z,3.50
2018-01-05T02:22:07.280Z,3.70
2018-01-05T02:24:36.422Z,3.30
2018-01-05T02:27:06.034Z,3.80
2018-01-05T02:29:34.929Z,3.30
2018-01-05T02:32:04.484Z,3.53
2018-01-05T02:34:33.298Z,3.40
2018-01-05T02:37:03.106Z,4.13
2018-01-05T02:39:32.735Z,3.30
2018-01-05T02:42:01.579Z,6.13
2018-01-05T02:44:30.415Z,4.97
2018-01-05T02:46:59.258Z,4.17
2018-01-05T02:49:28.099Z,4.60
2018-01-05T02:51:56.989Z,4.20
2018-01-05T02:54:25.814Z,4.50
2018-01-05T02:56:54.654Z,3.73
2018-01-05T02:59:24.394Z,4.63
2018-01-05T03:01:54.008Z,3.83
2018-01-05T03:04:22.829Z,3.87
2018-01-05T03:06:52.433Z,5.00
2018-01-05T03:09:21.287Z,4.90
2018-01-05T03:11:50.902Z,4.53
2018-01-05T03:14:19.740Z,4.03
2018-01-05T03:16:48.566Z,3.90
2018-01-05T03:19:17.430Z,5.27
2018-01-05T03:21:46.270Z,5.20
2018-01-05T03:24:15.109Z,4.10
2018-01-05T03:26:45.629Z,5.73
2018-01-05T03:29:14.474Z,5.23
2018-01-05T03:31:43.286Z,4.20
2018-01-05T03:34:12.169Z,4.57
2018-01-05T03:36:40.996Z,3.67
2018-01-05T03:39:09.831Z,4.70
2018-01-05T03:41:38.664Z,3.90
2018-01-05T03:44:07.494Z,4.30
2018-01-05T03:46:37.092Z,4.40
2018-01-05T03:49:06.774Z,5.07
2018-01-05T03:51:35.651Z,5.70
2018-01-05T03:54:04.487Z,4.17
2018-01-05T03:56:34.119Z,4.93
2018-01-05T03:59:03.829Z,3.50
2018-01-05T04:01:33.442Z,5.20
2018-01-05T04:04:03.050Z,4.20
2018-01-05T04:06:31.877Z,3.60
2018-01-05T04:09:01.617Z,4.30
2018-01-05T04:11:30.459Z,4.60
2018-01-05T04:13:59.319Z,4.40
2018-01-05T04:16:28.918Z,4.33
2018-01-05T04:18:58.510Z,4.27
2018-01-05T04:21:27.358Z,6.10
2018-01-05T04:23:56.219Z,5.43
2018-01-05T04:26:25.810Z,6.20
2018-01-05T04:28:55.425Z,6.93
2018-01-05T04:31:25.090Z,5.13
2018-01-05T04:33:53.903Z,5.60
2018-01-05T04:36:22.730Z,6.03
2018-01-05T04:38:51.577Z,5.57
2018-01-05T04:41:21.213Z,5.63
2018-01-05T04:43:50.038Z,6.20
2018-01-05T04:46:18.878Z,6.10
2018-01-05T04:48:48.479Z,5.17
2018-01-05T04:51:17.319Z,5.23
2018-01-05T04:53:46.178Z,5.90
2018-01-05T04:56:15.775Z,6.37
2018-01-05T04:58:44.628Z,5.83
2018-01-05T05:01:13.470Z,5.77
2018-01-05T05:03:42.282Z,5.70
2018-01-05T05:06:11.117Z,5.00
2018-01-05T05:08:39.957Z,4.50
2018-01-05T05:11:08.778Z,4.33
2018-01-05T05:13:37.634Z,3.70
2018-01-05T05:16:07.242Z,4.60
2018-01-05T05:18:36.086Z,3.17
2018-01-05T05:21:04.915Z,3.73
2018-01-05T05:23:34.524Z,4.13
2018-01-05T05:26:04.114Z,3.47
2018-01-05T05:28:33.741Z,3.90
2018-01-05T05:31:02.630Z,4.00
2018-01-05T05:33:31.486Z,4.10
2018-01-05T05:36:00.334Z,3.87
2018-01-05T05:38:30.094Z,3.97
2018-01-05T05:41:00.146Z,2.87
2018-01-05T05:43:28.990Z,3.17
2018-01-05T05:45:57.810Z,3.50
2018-01-05T05:48:26.656Z,4.60
2018-01-05T05:50:55.510Z,4.63
2018-01-05T05:53:25.111Z,2.90
2018-01-05T05:55:53.927Z,4.07
2018-01-05T05:58:22.796Z,4.80
2018-01-05T06:00:51.650Z,3.27
2018-01-05T06:03:21.157Z,4.53
2018-01-05T06:05:50.917Z,2.70
2018-01-05T06:08:19.750Z,3.30
2018-01-05T06:10:48.596Z,2.97
2018-01-05T06:13:17.447Z,3.40
2018-01-05T06:15:46.283Z,4.70
2018-01-05T06:18:15.123Z,3.80
2018-01-05T06:20:43.958Z,3.87
2018-01-05T06:23:12.817Z,4.33
2018-01-05T06:25:41.644Z,4.37
2018-01-05T06:28:10.482Z,4.90
2018-01-05T06:30:39.301Z,4.47
2018-01-05T06:33:08.125Z,5.07
2018-01-05T06:35:37.283Z,3.37
2018-01-05T06:38:07.483Z,4.83
2018-01-05T06:40:37.130Z,4.67
2018-01-05T06:43:05.979Z,4.40
2018-01-05T06:45:35.618Z,4.40
2018-01-05T06:48:04.425Z,4.40
2018-01-05T06:50:33.294Z,4.20
2018-01-05T06:53:02.113Z,3.20
2018-01-05T06:55:31.002Z,5.10
2018-01-05T06:58:00.455Z,4.23
2018-01-05T07:00:29.320Z,4.57
2018-01-05T07:02:58.203Z,4.37
2018-01-05T07:05:27.958Z,5.33
2018-01-05T07:07:56.818Z,4.33
2018-01-05T07:10:26.394Z,4.80
2018-01-05T07:12:55.227Z,3.97
2018-01-05T07:15:24.063Z,4.47
2018-01-05T07:17:53.712Z,4.43
2018-01-05T07:20:23.284Z,5.00
2018-01-05T07:22:52.232Z,5.33
2018-01-05T07:25:21.058Z,3.83
2018-01-05T07:27:49.889Z,4.77
2018-01-05T07:30:19.508Z,4.43
2018-01-05T07:32:48.302Z,5.10
2018-01-05T07:35:17.131Z,5.13
2018-01-05T07:37:47.394Z,4.50
2018-01-05T07:40:16.998Z,4.97
2018-01-05T07:42:46.608Z,4.30
2018-01-05T07:45:16.111Z,4.07
2018-01-05T07:47:45.770Z,3.97
2018-01-05T07:50:14.629Z,4.43
2018-01-05T07:52:44.230Z,3.80
2018-01-05T07:55:13.059Z,3.73
2018-01-05T07:57:42.654Z,4.37
2018-01-05T08:00:12.253Z,3.90
2018-01-05T08:02:41.858Z,4.70
2018-01-05T08:05:11.201Z,4.23
2018-01-05T08:07:40.069Z,4.73
2018-01-05T08:10:08.893Z,3.93
2018-01-05T08:12:37.782Z,4.23
2018-01-05T08:15:06.610Z,3.80
2018-01-05T08:17:36.851Z,5.03
2018-01-05T08:20:06.439Z,4.13
2018-01-05T08:22:36.060Z,4.00
2018-01-05T08:25:04.883Z,5.13
2018-01-05T08:27:35.176Z,4.60
2018-01-05T08:30:05.420Z,4.70
2018-01-05T08:32:34.269Z,4.70
2018-01-05T08:35:03.095Z,5.57
2018-01-05T08:37:31.985Z,5.07
2018-01-05T08:40:00.803Z,6.20
2018-01-05T08:42:30.459Z,5.90
2018-01-05T08:45:00.067Z,7.20
2018-01-05T08:47:29.679Z,5.97
2018-01-05T08:49:59.154Z,6.73
2018-01-05T08:52:27.992Z,6.03
2018-01-05T08:54:56.828Z,5.30
2018-01-05T08:57:25.675Z,5.27
2018-01-05T08:59:54.522Z,5.40
2018-01-05T09:02:23.314Z,6.03
2018-01-05T09:04:52.171Z,4.50
2018-01-05T09:07:21.650Z,4.50
2018-01-05T09:09:51.261Z,4.37
2018-01-05T09:12:20.837Z,4.40
2018-01-05T09:14:50.190Z,4.10
2018-01-05T09:17:19.032Z,4.00
2018-01-05T09:19:47.882Z,4.30
2018-01-05T09:22:17.448Z,3.57
2018-01-05T09:24:46.271Z,5.40
2018-01-05T09:27:15.119Z,4.40
2018-01-05T09:29:43.942Z,4.60
2018-01-05T09:32:13.545Z,3.83
2018-01-05T09:34:43.154Z,4.43
2018-01-05T09:37:11.970Z,4.67
2018-01-05T09:39:40.857Z,4.30
2018-01-05T09:42:09.653Z,4.30
2018-01-05T09:44:38.482Z,4.47
2018-01-05T09:47:08.403Z,3.93
2018-01-05T09:49:38.012Z,3.20
2018-01-05T09:52:08.206Z,4.63
2018-01-05T09:54:37.041Z,3.93
2018-01-05T09:57:06.641Z,3.87
2018-01-05T09:59:36.995Z,3.87
2018-01-05T10:02:05.847Z,3.73
2018-01-05T10:04:34.698Z,3.40
2018-01-05T10:07:04.294Z,4.70
2018-01-05T10:09:33.128Z,4.77
2018-01-05T10:12:01.959Z,3.90
2018-01-05T10:14:30.809Z,3.87
2018-01-05T10:16:59.946Z,3.00
2018-01-05T10:19:29.525Z,3.47
2018-01-05T10:21:59.135Z,3.30
2018-01-05T10:24:28.740Z,3.60
2018-01-05T10:26:58.432Z,4.20
2018-01-05T10:29:28.055Z,3.50
2018-01-05T10:31:57.666Z,4.03
2018-01-05T10:34:27.260Z,3.07
2018-01-05T10:36:56.103Z,3.90
2018-01-05T10:39:25.060Z,3.73
2018-01-05T10:41:54.554Z,4.13
2018-01-05T10:44:24.196Z,3.43
2018-01-05T10:46:53.182Z,2.87
2018-01-05T10:49:22.078Z,4.30
2018-01-05T10:51:50.924Z,4.57
2018-01-05T10:54:19.755Z,4.27
2018-01-05T10:56:49.392Z,3.77
2018-01-05T10:59:18.234Z,4.60
2018-01-05T11:01:47.094Z,4.73
2018-01-05T11:04:15.970Z,3.90
2018-01-05T11:06:44.839Z,3.77
2018-01-05T11:09:14.467Z,3.83
2018-01-05T11:11:43.314Z,4.43
2018-01-05T11:14:12.147Z,3.17
2018-01-05T11:16:41.046Z,3.77
2018-01-05T11:19:09.886Z,2.53
2018-01-05T11:21:39.495Z,3.57
2018-01-05T11:24:09.858Z,3.00
2018-01-05T11:26:38.740Z,3.80
2018-01-05T11:29:07.583Z,3.73
2018-01-05T11:31:36.418Z,3.83
2018-01-05T11:34:05.282Z,3.50
2018-01-05T11:36:34.884Z,3.50
2018-01-05T11:39:04.495Z,3.47
2018-01-05T11:41:34.108Z,4.30
2018-01-05T11:44:02.967Z,3.73
2018-01-05T11:46:31.988Z,5.03
2018-01-05T11:49:00.871Z,4.53
2018-01-05T11:51:30.514Z,4.60
2018-01-05T11:53:59.358Z,5.47
2018-01-05T11:56:28.204Z,3.67
2018-01-05T11:58:58.213Z,4.90
2018-01-05T12:01:27.835Z,4.90
2018-01-05T12:03:57.432Z,4.63
2018-01-05T12:06:26.258Z,4.37
2018-01-05T12:08:55.107Z,3.90
2018-01-05T12:11:23.951Z,3.73
2018-01-05T12:13:52.779Z,5.47
2018-01-05T12:16:22.510Z,4.20
2018-01-05T12:18:52.114Z,4.20
2018-01-05T12:23:57.731Z,4.80
2018-01-05T12:26:26.579Z,4.33
2018-01-05T12:28:56.237Z,4.63
2018-01-05T12:31:25.067Z,3.60
2018-01-05T12:33:54.974Z,4.23
2018-01-05T12:36:24.590Z,4.63
2018-01-05T12:38:54.198Z,3.83
2018-01-05T12:41:23.807Z,4.40
2018-01-05T12:43:53.434Z,4.33
2018-01-05T12:46:22.276Z,4.40
2018-01-05T12:48:51.170Z,4.40
2018-01-05T12:51:20.011Z,4.43
2018-01-05T12:53:48.919Z,3.80
2018-01-05T12:56:19.571Z,4.63
2018-01-05T12:58:49.644Z,3.77
2018-01-05T13:01:19.246Z,4.60
2018-01-05T13:03:49.531Z,4.53
2018-01-05T13:06:18.378Z,5.30
2018-01-05T13:08:47.231Z,5.00
2018-01-05T13:11:16.851Z,3.70
2018-01-05T13:13:45.674Z,4.20
2018-01-05T13:16:14.535Z,3.40
2018-01-05T13:18:43.397Z,6.10
2018-01-05T13:21:12.239Z,7.63
2018-01-05T13:23:41.107Z,3.97
2018-01-05T13:26:09.963Z,5.43
2018-01-05T13:28:38.799Z,4.00
2018-01-05T13:31:08.419Z,3.60
2018-01-05T13:33:37.250Z,3.63
2018-01-05T13:36:06.109Z,3.77
2018-01-05T13:38:34.938Z,3.63
2018-01-05T13:41:03.799Z,4.10
2018-01-05T13:43:32.666Z,4.47
2018-01-05T13:46:01.545Z,3.90
2018-01-05T13:48:31.166Z,4.00
2018-01-05T13:51:00.259Z,3.87
2018-01-05T13:53:29.929Z,4.10
2018-01-05T13:55:59.640Z,3.40
2018-01-05T13:58:28.465Z,3.13
2018-01-05T14:00:58.832Z,3.13
2018-01-05T14:03:27.691Z,3.50
2018-01-05T14:05:56.518Z,4.13
2018-01-05T14:08:25.386Z,4.00
2018-01-05T14:10:54.270Z,4.03
2018-01-05T14:13:23.267Z,3.70
2018-01-05T14:15:52.870Z,5.20
2018-01-05T14:18:22.499Z,4.80
2018-01-05T14:20:51.343Z,3.67
2018-01-05T14:23:20.201Z,5.10
2018-01-05T14:25:49.080Z,4.33
2018-01-05T14:28:17.915Z,5.20
2018-01-05T14:30:46.754Z,5.20
2018-01-05T14:33:15.606Z,4.03
2018-01-05T14:35:45.246Z,4.37
2018-01-05T14:38:14.087Z,4.13
2018-01-05T14:40:42.926Z,3.97
2018-01-05T14:43:11.767Z,4.87
2018-01-05T14:45:40.615Z,4.87
2018-01-05T14:48:09.452Z,4.10
2018-01-05T14:50:38.286Z,4.20
2018-01-05T14:53:07.149Z,4.40
2018-01-05T14:55:36.783Z,4.83
2018-01-05T14:58:06.410Z,5.17
2018-01-05T15:00:35.323Z,4.10
2018-01-05T15:03:04.166Z,4.90
2018-01-05T15:05:33.775Z,5.00
2018-01-05T15:08:03.410Z,5.73
2018-01-05T15:10:33.025Z,5.67
2018-01-05T15:13:01.904Z,5.67
2018-01-05T15:15:31.567Z,6.37
2018-01-05T15:18:00.412Z,8.20
2018-01-05T15:20:29.282Z,5.30
2018-01-05T15:22:58.143Z,7.53
2018-01-05T15:25:27.749Z,12.00
2018-01-05T15:27:57.402Z,6.10
2018-01-05T15:30:26.243Z,5.20
2018-01-05T15:32:55.070Z,7.33
2018-01-05T15:35:23.921Z,6.53
2018-01-05T15:37:53.574Z,6.93
2018-01-05T15:40:22.419Z,6.57
2018-01-05T15:45:27.316Z,6.40
2018-01-05T15:47:56.243Z,6.10
2018-01-05T15:50:25.082Z,6.20
2018-01-05T15:52:53.910Z,5.47
2018-01-05T15:55:22.736Z,5.47
2018-01-05T15:57:52.414Z,7.50
2018-01-05T16:00:21.313Z,6.53
2018-01-05T16:02:50.449Z,5.63
2018-01-05T16:05:19.270Z,6.00
2018-01-05T16:07:48.126Z,6.20
2018-01-05T16:10:16.951Z,5.77
2018-01-05T16:12:45.750Z,5.50
2018-01-05T16:15:14.635Z,6.00
2018-01-05T16:17:43.474Z,6.07
2018-01-05T16:20:12.302Z,6.40
2018-01-05T16:22:41.152Z,6.40
2018-01-05T16:25:10.214Z,5.57
2018-01-05T16:27:39.028Z,7.00
2018-01-05T16:30:07.887Z,6.23
2018-01-05T16:32:36.698Z,5.63
2018-01-05T16:35:06.499Z,5.47
2018-01-05T16:37:35.355Z,6.07
2018-01-05T16:40:04.208Z,5.83
2018-01-05T16:42:33.038Z,4.80
2018-01-05T16:45:01.955Z,5.37
2018-01-05T16:47:30.858Z,6.23
2018-01-05T16:49:59.671Z,5.27
2018-01-05T16:52:28.514Z,5.57
2018-01-05T16:54:57.354Z,5.20
2018-01-05T16:57:26.951Z,5.30
2018-01-05T16:59:55.809Z,5.93
2018-01-05T17:02:24.698Z,6.40
2018-01-05T17:04:53.529Z,5.13
2018-01-05T17:07:22.370Z,5.70
2018-01-05T17:09:51.256Z,6.33
2018-01-05T17:12:20.100Z,6.40
2018-01-05T17:14:48.927Z,6.07
2018-01-05T17:17:17.788Z,5.90
2018-01-05T17:19:47.400Z,6.13
2018-01-05T17:22:17.041Z,5.90
2018-01-05T17:24:45.866Z,6.10
2018-01-05T17:27:15.005Z,4.93
2018-01-05T17:29:44.599Z,5.70
2018-01-05T17:32:14.226Z,5.43
2018-01-05T17:34:43.047Z,4.73
2018-01-05T17:37:12.724Z,5.33
2018-01-05T17:39:41.597Z,5.40
2018-01-05T17:42:11.208Z,5.97
2018-01-05T17:44:40.066Z,4.97
2018-01-05T17:47:08.907Z,4.90
2018-01-05T17:49:37.755Z,4.83
2018-01-05T17:52:07.386Z,4.40
2018-01-05T17:54:37.036Z,4.57
2018-01-05T17:57:05.859Z,6.90
2018-01-05T17:59:34.803Z,5.53
2018-01-05T18:02:04.378Z,4.97
2018-01-05T18:04:33.223Z,5.40
2018-01-05T18:07:02.075Z,5.70
2018-01-05T18:09:30.942Z,4.73
2018-01-05T18:11:59.796Z,4.30
2018-01-05T18:14:28.631Z,5.10
2018-01-05T18:16:57.480Z,4.83
2018-01-05T18:19:26.319Z,4.20
2018-01-05T18:21:55.165Z,5.90
2018-01-05T18:24:24.003Z,5.03
2018-01-05T18:26:52.840Z,4.80
2018-01-05T18:29:21.797Z,4.67
2018-01-05T18:31:50.582Z,4.40
2018-01-05T18:34:20.223Z,4.90
2018-01-05T18:36:49.596Z,4.30
2018-01-05T18:39:19.227Z,4.63
2018-01-05T18:41:48.066Z,4.10
2018-01-05T18:44:18.343Z,4.30
2018-01-05T18:46:47.480Z,4.87
2018-01-05T18:49:16.322Z,5.00
2018-01-05T18:51:45.148Z,5.67
2018-01-05T18:54:14.131Z,5.27
2018-01-05T18:56:42.972Z,4.37
2018-01-05T18:59:12.852Z,5.50
2018-01-05T19:01:42.473Z,5.70
2018-01-05T19:04:12.900Z,4.43
2018-01-05T19:06:42.498Z,5.40
2018-01-05T19:09:12.162Z,4.70
2018-01-05T19:11:41.020Z,4.73
2018-01-05T19:14:09.868Z,5.43
2018-01-05T19:16:38.728Z,5.80
2018-01-05T19:19:07.590Z,5.03
2018-01-05T19:21:36.443Z,5.90
2018-01-05T19:24:05.289Z,5.57
2018-01-05T19:26:34.890Z,4.90
2018-01-05T19:29:03.734Z,4.80
2018-01-05T19:31:32.589Z,5.80
2018-01-05T19:34:01.458Z,8.73
2018-01-05T19:36:30.327Z,5.53
2018-01-05T19:38:59.250Z,5.80
2018-01-05T19:41:28.095Z,5.53
2018-01-05T19:43:57.743Z,5.43
2018-01-05T19:46:26.594Z,4.43
2018-01-05T19:48:56.237Z,4.57
2018-01-05T19:51:25.843Z,4.60
2018-01-05T19:53:54.978Z,4.20
2018-01-05T19:56:23.818Z,5.17
2018-01-05T19:58:52.666Z,5.20
2018-01-05T20:01:21.565Z,4.80
2018-01-05T20:03:51.159Z,5.30
2018-01-05T20:06:20.057Z,5.13
2018-01-05T20:08:48.908Z,5.23
2018-01-05T20:11:18.531Z,5.33
2018-01-05T20:13:47.404Z,5.00
2018-01-05T20:16:16.304Z,5.10
2018-01-05T20:18:45.168Z,4.93
2018-01-05T20:21:14.008Z,5.73
2018-01-05T20:23:42.845Z,3.87
2018-01-05T20:26:11.818Z,3.63
2018-01-05T20:28:40.685Z,4.17
2018-01-05T20:31:10.188Z,4.50
2018-01-05T20:33:39.088Z,4.10
2018-01-05T20:36:08.114Z,3.80
2018-01-05T20:38:37.320Z,4.73
2018-01-05T20:41:06.649Z,4.47
2018-01-05T20:43:35.834Z,4.00
2018-01-05T20:46:04.665Z,4.90
2018-01-05T20:48:34.234Z,3.50
2018-01-05T20:51:04.123Z,3.80
2018-01-05T20:53:33.598Z,3.73
2018-01-05T20:56:02.432Z,4.20
2018-01-05T20:58:31.552Z,4.00
2018-01-05T21:01:00.722Z,3.73
2018-01-05T21:03:30.341Z,3.50
2018-01-05T21:05:59.991Z,3.83
2018-01-05T21:08:29.116Z,3.40
2018-01-05T21:10:58.037Z,3.60
2018-01-05T21:13:27.640Z,3.17
2018-01-05T21:15:57.308Z,3.07
2018-01-05T21:18:26.165Z,3.00
2018-01-05T21:20:55.006Z,3.60
2018-01-05T21:23:23.868Z,3.30
2018-01-05T21:25:53.107Z,3.53
2018-01-05T21:28:21.938Z,3.63
2018-01-05T21:30:50.796Z,3.60
2018-01-05T21:33:22.581Z,3.27
2018-01-05T21:35:51.430Z,3.40
2018-01-05T21:38:20.270Z,3.70
2018-01-05T21:40:49.110Z,3.83
2018-01-05T21:43:18.768Z,3.50
2018-01-05T21:45:47.651Z,3.07
2018-01-05T21:48:16.511Z,4.00
2018-01-05T21:50:46.135Z,2.50
2018-01-05T21:53:15.031Z,3.63
2018-01-05T21:55:43.857Z,3.10
2018-01-05T21:58:12.683Z,2.33
2018-01-05T22:00:42.310Z,2.50
2018-01-05T22:03:11.176Z,2.70
2018-01-05T22:05:40.784Z,3.10
2018-01-05T22:08:10.373Z,2.30
2018-01-05T22:10:40.009Z,2.30
2018-01-05T22:13:13.127Z,1.90
2018-01-05T22:15:41.998Z,2.00
2018-01-05T22:18:10.872Z,1.73
2018-01-05T22:20:40.461Z,1.80
2018-01-05T22:23:10.038Z,1.83
2018-01-05T22:25:38.881Z,3.47
2018-01-05T22:28:07.717Z,2.27
2018-01-05T22:30:36.565Z,3.27
2018-01-05T22:33:05.446Z,2.87
2018-01-05T22:35:34.337Z,2.43
2018-01-05T22:38:03.391Z,2.50
2018-01-05T22:40:32.275Z,2.80
2018-01-05T22:43:02.443Z,3.70
2018-01-05T22:45:31.274Z,2.93
2018-01-05T22:48:00.123Z,2.73
2018-01-05T22:50:28.967Z,2.63
2018-01-05T22:52:57.803Z,2.80
2018-01-05T22:55:26.676Z,2.60
2018-01-05T22:57:55.579Z,3.17
2018-01-05T23:00:24.431Z,3.40
2018-01-05T23:02:53.265Z,2.90
2018-01-05T23:05:22.099Z,3.17
2018-01-05T23:07:50.914Z,4.13
2018-01-05T23:10:19.766Z,3.23
2018-01-05T23:12:49.358Z,3.03
2018-01-05T23:15:18.970Z,3.23
2018-01-05T23:17:48.571Z,3.80
2018-01-05T23:20:18.182Z,3.63
2018-01-05T23:22:48.507Z,3.70
2018-01-05T23:25:18.129Z,3.27
2018-01-05T23:27:47.715Z,4.07
2018-01-05T23:30:17.340Z,3.30
2018-01-05T23:32:46.182Z,4.10
2018-01-05T23:35:15.035Z,4.13
2018-01-05T23:37:43.927Z,3.00
2018-01-05T23:40:12.718Z,3.40
2018-01-05T23:42:41.546Z,3.37
2018-01-05T23:45:10.398Z,3.13
2018-01-05T23:47:39.239Z,2.73
2018-01-05T23:50:08.064Z,4.20
2018-01-05T23:52:36.902Z,3.63
2018-01-05T23:55:05.738Z,4.27
2018-01-05T23:57:34.576Z,3.83
